sensor_id;sensor_type;location;lat;lon;timestamp;pressure;altitude;pressure_sealevel;temperature;humidity
32733;BME280;11867;51.198;11.966;2023-03-18T00:01:03;99930.47;;;9.53;70.83
32733;BME280;11867;51.198;11.966;2023-03-18T00:02:05;99932.28;;;9.63;70.57
32733;BME280;11867;51.198;11.966;2023-03-18T00:03:09;99939.88;;;10.00;69.35
32733;BME280;11867;51.198;11.966;2023-03-18T00:04:12;99935.78;;;10.27;68.10
32733;BME280;11867;51.198;11.966;2023-03-18T00:05:15;99932.88;;;10.47;67.86
32733;BME280;11867;51.198;11.966;2023-03-18T00:06:18;99934.63;;;10.62;66.97
32733;BME280;11867;51.198;11.966;2023-03-18T00:07:22;99935.00;;;10.75;66.39
32733;BME280;11867;51.198;11.966;2023-03-18T00:08:23;99936.53;;;10.86;66.00
32733;BME280;11867;51.198;11.966;2023-03-18T00:09:26;99926.94;;;10.88;66.23
32733;BME280;11867;51.198;11.966;2023-03-18T00:10:27;99933.50;;;10.87;66.23
32733;BME280;11867;51.198;11.966;2023-03-18T00:11:31;99922.94;;;10.81;66.40
32733;BME280;11867;51.198;11.966;2023-03-18T00:12:32;99931.56;;;10.45;67.51
32733;BME280;11867;51.198;11.966;2023-03-18T00:13:35;99933.16;;;9.93;69.57
32733;BME280;11867;51.198;11.966;2023-03-18T00:14:37;99930.72;;;9.86;70.02
32733;BME280;11867;51.198;11.966;2023-03-18T00:15:40;99934.31;;;9.81;70.10
32733;BME280;11867;51.198;11.966;2023-03-18T00:16:42;99936.44;;;9.16;72.78
32733;BME280;11867;51.198;11.966;2023-03-18T00:17:45;99939.53;;;9.38;72.49
32733;BME280;11867;51.198;11.966;2023-03-18T00:18:47;99935.97;;;9.03;73.36
32733;BME280;11867;51.198;11.966;2023-03-18T00:19:51;99938.78;;;8.78;74.55
32733;BME280;11867;51.198;11.966;2023-03-18T00:20:53;99932.03;;;8.70;75.08
32733;BME280;11867;51.198;11.966;2023-03-18T00:21:55;99939.38;;;8.75;75.21
32733;BME280;11867;51.198;11.966;2023-03-18T00:22:57;99937.69;;;8.84;74.55
32733;BME280;11867;51.198;11.966;2023-03-18T00:24:00;99938.38;;;8.50;75.41
32733;BME280;11867;51.198;11.966;2023-03-18T00:25:03;99930.75;;;8.52;75.72
32733;BME280;11867;51.198;11.966;2023-03-18T00:26:06;99938.09;;;8.36;75.80
32733;BME280;11867;51.198;11.966;2023-03-18T00:27:09;99941.63;;;8.52;76.43
32733;BME280;11867;51.198;11.966;2023-03-18T00:28:12;99934.78;;;8.65;75.78
32733;BME280;11867;51.198;11.966;2023-03-18T00:29:14;99929.41;;;8.44;76.61
32733;BME280;11867;51.198;11.966;2023-03-18T00:30:16;99930.47;;;8.38;77.01
32733;BME280;11867;51.198;11.966;2023-03-18T00:31:18;99932.94;;;8.50;76.78
32733;BME280;11867;51.198;11.966;2023-03-18T00:32:21;99926.44;;;8.25;76.98
32733;BME280;11867;51.198;11.966;2023-03-18T00:33:23;99933.53;;;8.06;78.19
32733;BME280;11867;51.198;11.966;2023-03-18T00:34:26;99936.25;;;8.01;78.62
32733;BME280;11867;51.198;11.966;2023-03-18T00:35:29;99939.50;;;8.23;78.21
32733;BME280;11867;51.198;11.966;2023-03-18T00:36:33;99924.78;;;8.35;77.84
32733;BME280;11867;51.198;11.966;2023-03-18T00:37:34;99935.13;;;8.22;77.98
32733;BME280;11867;51.198;11.966;2023-03-18T00:38:38;99933.78;;;8.20;78.40
32733;BME280;11867;51.198;11.966;2023-03-18T00:39:41;99931.66;;;8.06;78.81
32733;BME280;11867;51.198;11.966;2023-03-18T00:40:45;99934.06;;;8.18;78.11
32733;BME280;11867;51.198;11.966;2023-03-18T00:41:55;99923.69;;;8.31;77.79
32733;BME280;11867;51.198;11.966;2023-03-18T00:42:58;99931.59;;;8.47;77.47
32733;BME280;11867;51.198;11.966;2023-03-18T00:44:08;99933.97;;;8.59;76.99
32733;BME280;11867;51.198;11.966;2023-03-18T00:45:12;99941.56;;;8.73;76.68
32733;BME280;11867;51.198;11.966;2023-03-18T00:46:16;99937.75;;;8.63;76.36
32733;BME280;11867;51.198;11.966;2023-03-18T00:47:19;99940.56;;;8.27;77.61
32733;BME280;11867;51.198;11.966;2023-03-18T00:48:22;99937.06;;;8.12;78.92
32733;BME280;11867;51.198;11.966;2023-03-18T00:49:24;99939.25;;;8.04;78.68
32733;BME280;11867;51.198;11.966;2023-03-18T00:50:26;99938.13;;;8.16;78.32
32733;BME280;11867;51.198;11.966;2023-03-18T00:51:32;99931.91;;;7.89;79.70
32733;BME280;11867;51.198;11.966;2023-03-18T00:52:34;99931.91;;;7.89;79.92
32733;BME280;11867;51.198;11.966;2023-03-18T00:53:37;99940.63;;;7.81;80.32
32733;BME280;11867;51.198;11.966;2023-03-18T00:54:39;99931.94;;;7.84;80.64
32733;BME280;11867;51.198;11.966;2023-03-18T00:55:42;99934.06;;;7.98;80.06
32733;BME280;11867;51.198;11.966;2023-03-18T00:56:44;99923.16;;;8.44;77.98
32733;BME280;11867;51.198;11.966;2023-03-18T00:57:47;99935.00;;;8.74;76.73
32733;BME280;11867;51.198;11.966;2023-03-18T00:58:49;99928.53;;;8.64;76.62
32733;BME280;11867;51.198;11.966;2023-03-18T00:59:52;99935.53;;;8.76;76.62
32733;BME280;11867;51.198;11.966;2023-03-18T01:00:54;99931.06;;;8.45;77.59
32733;BME280;11867;51.198;11.966;2023-03-18T01:01:57;99930.75;;;8.37;77.03
32733;BME280;11867;51.198;11.966;2023-03-18T01:02:58;99927.78;;;8.33;77.62
32733;BME280;11867;51.198;11.966;2023-03-18T01:04:01;99930.94;;;8.66;76.72
32733;BME280;11867;51.198;11.966;2023-03-18T01:05:04;99927.34;;;8.91;75.20
32733;BME280;11867;51.198;11.966;2023-03-18T01:06:08;99922.75;;;9.26;74.33
32733;BME280;11867;51.198;11.966;2023-03-18T01:07:12;99919.59;;;9.53;73.56
32733;BME280;11867;51.198;11.966;2023-03-18T01:08:15;99920.78;;;9.71;72.68
32733;BME280;11867;51.198;11.966;2023-03-18T01:09:17;99914.41;;;9.86;72.29
32733;BME280;11867;51.198;11.966;2023-03-18T01:10:20;99920.09;;;9.89;71.97
32733;BME280;11867;51.198;11.966;2023-03-18T01:11:22;99919.44;;;10.03;71.58
32733;BME280;11867;51.198;11.966;2023-03-18T01:12:24;99923.75;;;10.09;70.06
32733;BME280;11867;51.198;11.966;2023-03-18T01:13:26;99915.41;;;10.24;69.58
32733;BME280;11867;51.198;11.966;2023-03-18T01:14:29;99926.81;;;10.32;69.13
32733;BME280;11867;51.198;11.966;2023-03-18T01:15:30;99917.06;;;10.20;70.31
32733;BME280;11867;51.198;11.966;2023-03-18T01:16:33;99924.97;;;10.22;70.28
32733;BME280;11867;51.198;11.966;2023-03-18T01:17:34;99925.16;;;10.30;69.88
32733;BME280;11867;51.198;11.966;2023-03-18T01:18:37;99922.47;;;10.25;70.54
32733;BME280;11867;51.198;11.966;2023-03-18T01:19:39;99926.47;;;10.38;70.16
32733;BME280;11867;51.198;11.966;2023-03-18T01:20:42;99917.19;;;10.10;70.52
32733;BME280;11867;51.198;11.966;2023-03-18T01:21:44;99916.44;;;10.28;70.10
32733;BME280;11867;51.198;11.966;2023-03-18T01:22:48;99917.56;;;10.27;69.89
32733;BME280;11867;51.198;11.966;2023-03-18T01:23:50;99912.19;;;10.46;69.62
32733;BME280;11867;51.198;11.966;2023-03-18T01:24:53;99920.66;;;10.45;69.12
32733;BME280;11867;51.198;11.966;2023-03-18T01:25:55;99921.69;;;10.49;68.26
32733;BME280;11867;51.198;11.966;2023-03-18T01:26:59;99927.50;;;10.42;69.31
32733;BME280;11867;51.198;11.966;2023-03-18T01:28:00;99918.81;;;10.40;69.42
32733;BME280;11867;51.198;11.966;2023-03-18T01:29:03;99918.84;;;10.35;66.69
32733;BME280;11867;51.198;11.966;2023-03-18T01:30:06;99920.78;;;10.59;66.90
32733;BME280;11867;51.198;11.966;2023-03-18T01:31:10;99915.41;;;10.73;67.85
32733;BME280;11867;51.198;11.966;2023-03-18T01:32:13;99913.81;;;10.47;67.12
32733;BME280;11867;51.198;11.966;2023-03-18T01:33:16;99915.59;;;10.57;65.08
32733;BME280;11867;51.198;11.966;2023-03-18T01:34:18;99910.06;;;10.62;66.67
32733;BME280;11867;51.198;11.966;2023-03-18T01:35:22;99920.00;;;10.77;65.79
32733;BME280;11867;51.198;11.966;2023-03-18T01:36:24;99927.31;;;10.82;64.54
32733;BME280;11867;51.198;11.966;2023-03-18T01:37:26;99927.44;;;10.72;66.33
32733;BME280;11867;51.198;11.966;2023-03-18T01:38:31;99922.94;;;10.81;64.11
32733;BME280;11867;51.198;11.966;2023-03-18T01:39:33;99919.63;;;10.84;63.75
32733;BME280;11867;51.198;11.966;2023-03-18T01:40:37;99920.31;;;10.95;63.12
32733;BME280;11867;51.198;11.966;2023-03-18T01:41:40;99922.66;;;11.01;62.85
32733;BME280;11867;51.198;11.966;2023-03-18T01:42:46;99919.78;;;10.93;62.87
32733;BME280;11867;51.198;11.966;2023-03-18T01:43:50;99923.41;;;11.07;63.44
32733;BME280;11867;51.198;11.966;2023-03-18T01:45:11;99923.13;;;11.27;63.26
32733;BME280;11867;51.198;11.966;2023-03-18T01:46:34;99922.69;;;11.39;64.11
32733;BME280;11867;51.198;11.966;2023-03-18T01:47:36;99923.91;;;11.47;62.78
32733;BME280;11867;51.198;11.966;2023-03-18T01:48:39;99924.91;;;11.37;62.28
32733;BME280;11867;51.198;11.966;2023-03-18T01:49:45;99926.34;;;11.48;62.39
32733;BME280;11867;51.198;11.966;2023-03-18T01:50:55;99921.34;;;11.37;61.88
32733;BME280;11867;51.198;11.966;2023-03-18T01:52:04;99922.63;;;11.06;62.61
32733;BME280;11867;51.198;11.966;2023-03-18T01:53:10;99918.38;;;10.95;62.66
32733;BME280;11867;51.198;11.966;2023-03-18T01:54:14;99915.78;;;10.85;62.87
32733;BME280;11867;51.198;11.966;2023-03-18T01:55:28;99919.56;;;10.89;63.24
32733;BME280;11867;51.198;11.966;2023-03-18T01:56:32;99913.72;;;10.77;63.35
32733;BME280;11867;51.198;11.966;2023-03-18T01:57:36;99913.31;;;10.88;63.22
32733;BME280;11867;51.198;11.966;2023-03-18T01:58:40;99913.06;;;10.85;63.20
32733;BME280;11867;51.198;11.966;2023-03-18T01:59:45;99911.56;;;10.98;63.02
32733;BME280;11867;51.198;11.966;2023-03-18T02:00:50;99919.81;;;11.11;62.57
32733;BME280;11867;51.198;11.966;2023-03-18T02:01:59;99920.31;;;11.14;62.41
32733;BME280;11867;51.198;11.966;2023-03-18T02:03:03;99917.38;;;11.29;62.91
32733;BME280;11867;51.198;11.966;2023-03-18T02:04:08;99922.69;;;11.39;61.75
32733;BME280;11867;51.198;11.966;2023-03-18T02:05:15;99913.84;;;11.47;61.46
32733;BME280;11867;51.198;11.966;2023-03-18T02:06:19;99922.38;;;11.60;61.38
32733;BME280;11867;51.198;11.966;2023-03-18T02:07:25;99922.38;;;11.60;61.24
32733;BME280;11867;51.198;11.966;2023-03-18T02:08:28;99923.13;;;11.46;61.15
32733;BME280;11867;51.198;11.966;2023-03-18T02:09:31;99931.97;;;11.38;61.39
32733;BME280;11867;51.198;11.966;2023-03-18T02:10:34;99928.34;;;11.24;61.73
32733;BME280;11867;51.198;11.966;2023-03-18T02:11:39;99929.84;;;11.35;61.59
32733;BME280;11867;51.198;11.966;2023-03-18T02:12:47;99929.84;;;11.35;62.10
32733;BME280;11867;51.198;11.966;2023-03-18T02:13:50;99921.34;;;11.37;61.70
32733;BME280;11867;51.198;11.966;2023-03-18T02:14:53;99919.31;;;11.61;61.30
32733;BME280;11867;51.198;11.966;2023-03-18T02:16:01;99925.69;;;11.57;60.82
32733;BME280;11867;51.198;11.966;2023-03-18T02:17:08;99919.81;;;11.49;61.30
32733;BME280;11867;51.198;11.966;2023-03-18T02:18:16;99927.31;;;11.58;61.05
32733;BME280;11867;51.198;11.966;2023-03-18T02:19:29;99923.63;;;11.48;61.07
32733;BME280;11867;51.198;11.966;2023-03-18T02:20:44;99927.91;;;11.36;61.24
32733;BME280;11867;51.198;11.966;2023-03-18T02:21:56;99928.56;;;11.46;61.44
32733;BME280;11867;51.198;11.966;2023-03-18T02:23:02;99924.75;;;11.47;61.37
32733;BME280;11867;51.198;11.966;2023-03-18T02:24:18;99928.41;;;11.57;60.91
32733;BME280;11867;51.198;11.966;2023-03-18T02:25:32;99929.09;;;11.48;60.99
32733;BME280;11867;51.198;11.966;2023-03-18T02:26:42;99927.94;;;11.17;61.94
32733;BME280;11867;51.198;11.966;2023-03-18T02:27:48;99927.78;;;11.08;61.50
32733;BME280;11867;51.198;11.966;2023-03-18T02:28:56;99927.31;;;11.20;61.85
32733;BME280;11867;51.198;11.966;2023-03-18T02:30:03;99934.19;;;11.36;61.45
32733;BME280;11867;51.198;11.966;2023-03-18T02:31:10;99929.59;;;11.50;60.99
32733;BME280;11867;51.198;11.966;2023-03-18T02:32:15;99929.44;;;11.61;60.92
32733;BME280;11867;51.198;11.966;2023-03-18T02:33:20;99940.31;;;11.66;60.71
32733;BME280;11867;51.198;11.966;2023-03-18T02:34:23;99929.72;;;11.78;60.39
32733;BME280;11867;51.198;11.966;2023-03-18T02:35:27;99933.56;;;11.77;60.17
32733;BME280;11867;51.198;11.966;2023-03-18T02:36:32;99932.97;;;11.80;59.92
32733;BME280;11867;51.198;11.966;2023-03-18T02:37:34;99933.78;;;11.81;60.24
32733;BME280;11867;51.198;11.966;2023-03-18T02:38:40;99928.88;;;11.78;60.25
32733;BME280;11867;51.198;11.966;2023-03-18T02:39:41;99931.75;;;11.86;60.07
32733;BME280;11867;51.198;11.966;2023-03-18T02:40:44;99932.28;;;11.88;59.93
32733;BME280;11867;51.198;11.966;2023-03-18T02:41:45;99934.47;;;11.86;59.98
32733;BME280;11867;51.198;11.966;2023-03-18T02:42:50;99943.66;;;11.96;60.03
32733;BME280;11867;51.198;11.966;2023-03-18T02:43:52;99938.41;;;11.99;59.89
32733;BME280;11867;51.198;11.966;2023-03-18T02:44:55;99946.91;;;11.98;60.06
32733;BME280;11867;51.198;11.966;2023-03-18T02:46:11;99947.91;;;12.02;59.95
32733;BME280;11867;51.198;11.966;2023-03-18T02:47:17;99940.19;;;11.90;60.35
32733;BME280;11867;51.198;11.966;2023-03-18T02:48:23;99940.19;;;11.90;60.31
32733;BME280;11867;51.198;11.966;2023-03-18T02:49:27;99941.66;;;11.82;60.65
32733;BME280;11867;51.198;11.966;2023-03-18T02:50:29;99949.00;;;12.01;60.02
32733;BME280;11867;51.198;11.966;2023-03-18T02:51:33;99949.25;;;11.85;60.14
32733;BME280;11867;51.198;11.966;2023-03-18T02:52:35;99941.88;;;11.86;60.28
32733;BME280;11867;51.198;11.966;2023-03-18T02:53:39;99955.09;;;11.98;60.09
32733;BME280;11867;51.198;11.966;2023-03-18T02:54:42;99948.59;;;11.94;60.05
32733;BME280;11867;51.198;11.966;2023-03-18T02:55:44;99955.50;;;11.91;60.22
32733;BME280;11867;51.198;11.966;2023-03-18T02:56:46;99957.97;;;11.87;60.48
32733;BME280;11867;51.198;11.966;2023-03-18T02:57:50;99962.28;;;11.75;60.74
32733;BME280;11867;51.198;11.966;2023-03-18T02:58:52;99956.44;;;11.81;60.60
32733;BME280;11867;51.198;11.966;2023-03-18T02:59:54;99970.88;;;12.01;60.34
32733;BME280;11867;51.198;11.966;2023-03-18T03:00:56;99967.63;;;11.99;60.40
32733;BME280;11867;51.198;11.966;2023-03-18T03:01:59;99972.75;;;12.19;60.01
32733;BME280;11867;51.198;11.966;2023-03-18T03:03:02;99970.13;;;12.14;60.08
32733;BME280;11867;51.198;11.966;2023-03-18T03:04:06;99972.22;;;12.17;60.03
32733;BME280;11867;51.198;11.966;2023-03-18T03:05:08;99974.09;;;12.22;59.85
32733;BME280;11867;51.198;11.966;2023-03-18T03:06:11;99976.31;;;12.34;59.72
32733;BME280;11867;51.198;11.966;2023-03-18T03:07:12;99973.69;;;12.28;59.71
32733;BME280;11867;51.198;11.966;2023-03-18T03:08:15;99983.56;;;12.10;59.97
32733;BME280;11867;51.198;11.966;2023-03-18T03:09:17;99978.03;;;11.97;60.59
32733;BME280;11867;51.198;11.966;2023-03-18T03:10:20;99987.75;;;11.89;60.89
32733;BME280;11867;51.198;11.966;2023-03-18T03:11:21;99982.47;;;11.93;60.91
32733;BME280;11867;51.198;11.966;2023-03-18T03:12:24;99986.91;;;11.88;61.09
32733;BME280;11867;51.198;11.966;2023-03-18T03:13:27;99978.66;;;11.94;60.94
32733;BME280;11867;51.198;11.966;2023-03-18T03:14:30;99977.84;;;11.93;61.17
32733;BME280;11867;51.198;11.966;2023-03-18T03:15:31;99971.03;;;12.09;60.83
32733;BME280;11867;51.198;11.966;2023-03-18T03:16:34;99977.69;;;12.17;60.47
32733;BME280;11867;51.198;11.966;2023-03-18T03:17:36;99970.53;;;12.21;60.44
32733;BME280;11867;51.198;11.966;2023-03-18T03:18:40;99979.41;;;11.99;60.86
32733;BME280;11867;51.198;11.966;2023-03-18T03:19:42;99976.66;;;11.80;61.36
32733;BME280;11867;51.198;11.966;2023-03-18T03:20:45;99977.63;;;11.70;61.70
32733;BME280;11867;51.198;11.966;2023-03-18T03:21:46;99980.44;;;11.46;62.19
32733;BME280;11867;51.198;11.966;2023-03-18T03:22:49;99983.59;;;11.35;62.83
32733;BME280;11867;51.198;11.966;2023-03-18T03:23:51;99978.66;;;11.37;62.68
32733;BME280;11867;51.198;11.966;2023-03-18T03:24:54;99981.38;;;11.37;62.65
32733;BME280;11867;51.198;11.966;2023-03-18T03:25:56;99984.81;;;11.47;62.47
32733;BME280;11867;51.198;11.966;2023-03-18T03:26:59;99980.44;;;11.46;62.54
32733;BME280;11867;51.198;11.966;2023-03-18T03:28:01;99983.97;;;11.47;62.75
32733;BME280;11867;51.198;11.966;2023-03-18T03:29:05;99990.69;;;11.36;62.89
32733;BME280;11867;51.198;11.966;2023-03-18T03:30:10;99983.97;;;11.09;63.79
32733;BME280;11867;51.198;11.966;2023-03-18T03:31:12;99981.84;;;11.25;63.53
32733;BME280;11867;51.198;11.966;2023-03-18T03:32:15;99989.69;;;11.07;63.73
32733;BME280;11867;51.198;11.966;2023-03-18T03:33:17;99988.16;;;11.20;63.86
32733;BME280;11867;51.198;11.966;2023-03-18T03:34:20;99989.50;;;11.23;63.63
32733;BME280;11867;51.198;11.966;2023-03-18T03:35:22;99996.00;;;11.27;63.38
32733;BME280;11867;51.198;11.966;2023-03-18T03:36:25;99980.50;;;11.22;63.68
32733;BME280;11867;51.198;11.966;2023-03-18T03:37:27;99989.56;;;11.18;63.76
32733;BME280;11867;51.198;11.966;2023-03-18T03:38:29;99989.41;;;11.09;63.97
32733;BME280;11867;51.198;11.966;2023-03-18T03:39:31;99992.00;;;11.00;64.11
32733;BME280;11867;51.198;11.966;2023-03-18T03:40:34;99994.88;;;10.85;64.65
32733;BME280;11867;51.198;11.966;2023-03-18T03:41:35;99990.59;;;10.79;64.50
32733;BME280;11867;51.198;11.966;2023-03-18T03:42:38;99986.41;;;10.62;65.06
32733;BME280;11867;51.198;11.966;2023-03-18T03:43:40;99984.81;;;10.61;65.38
32733;BME280;11867;51.198;11.966;2023-03-18T03:44:45;99988.28;;;10.67;65.43
32733;BME280;11867;51.198;11.966;2023-03-18T03:45:46;99982.25;;;10.70;65.04
32733;BME280;11867;51.198;11.966;2023-03-18T03:46:49;99979.91;;;10.82;64.96
32733;BME280;11867;51.198;11.966;2023-03-18T03:47:51;99988.38;;;10.81;64.65
32733;BME280;11867;51.198;11.966;2023-03-18T03:48:54;99997.69;;;10.80;64.59
32733;BME280;11867;51.198;11.966;2023-03-18T03:49:55;99991.31;;;10.65;65.11
32733;BME280;11867;51.198;11.966;2023-03-18T03:50:58;99994.06;;;10.60;65.06
32733;BME280;11867;51.198;11.966;2023-03-18T03:52:00;99986.41;;;10.62;65.16
32733;BME280;11867;51.198;11.966;2023-03-18T03:53:03;99988.63;;;10.60;65.05
32733;BME280;11867;51.198;11.966;2023-03-18T03:54:05;99991.31;;;10.65;65.21
32733;BME280;11867;51.198;11.966;2023-03-18T03:55:11;99986.09;;;10.69;64.84
32733;BME280;11867;51.198;11.966;2023-03-18T03:56:13;99986.94;;;10.88;64.45
32733;BME280;11867;51.198;11.966;2023-03-18T03:57:16;99991.75;;;10.97;64.11
32733;BME280;11867;51.198;11.966;2023-03-18T03:58:18;99989.78;;;10.78;64.36
32733;BME280;11867;51.198;11.966;2023-03-18T03:59:20;99991.22;;;10.70;64.78
32733;BME280;11867;51.198;11.966;2023-03-18T04:00:23;100002.09;;;10.76;64.64
32733;BME280;11867;51.198;11.966;2023-03-18T04:01:26;99988.97;;;10.54;65.15
32733;BME280;11867;51.198;11.966;2023-03-18T04:02:28;99987.75;;;10.41;65.35
32733;BME280;11867;51.198;11.966;2023-03-18T04:03:31;99998.00;;;10.49;65.61
32733;BME280;11867;51.198;11.966;2023-03-18T04:04:32;99998.47;;;10.56;65.35
32733;BME280;11867;51.198;11.966;2023-03-18T04:05:35;99981.47;;;10.64;65.05
32733;BME280;11867;51.198;11.966;2023-03-18T04:06:37;99990.31;;;10.80;64.60
32733;BME280;11867;51.198;11.966;2023-03-18T04:07:40;99991.31;;;10.65;64.92
32733;BME280;11867;51.198;11.966;2023-03-18T04:08:42;99996.41;;;10.72;64.78
32733;BME280;11867;51.198;11.966;2023-03-18T04:09:45;99984.81;;;10.85;64.35
32733;BME280;11867;51.198;11.966;2023-03-18T04:10:46;99993.72;;;10.91;64.25
32733;BME280;11867;51.198;11.966;2023-03-18T04:11:49;99987.75;;;10.89;64.51
32733;BME280;11867;51.198;11.966;2023-03-18T04:12:51;99999.41;;;10.95;64.30
32733;BME280;11867;51.198;11.966;2023-03-18T04:13:53;99995.53;;;11.01;64.24
32733;BME280;11867;51.198;11.966;2023-03-18T04:14:55;99994.44;;;11.02;64.16
32733;BME280;11867;51.198;11.966;2023-03-18T04:15:59;100000.81;;;10.92;64.32
32733;BME280;11867;51.198;11.966;2023-03-18T04:17:01;100007.97;;;10.88;64.47
32733;BME280;11867;51.198;11.966;2023-03-18T04:18:03;100000.44;;;10.75;64.73
32733;BME280;11867;51.198;11.966;2023-03-18T04:19:07;100001.03;;;10.47;65.74
32733;BME280;11867;51.198;11.966;2023-03-18T04:20:11;99998.78;;;10.79;65.02
32733;BME280;11867;51.198;11.966;2023-03-18T04:21:14;100004.13;;;10.89;64.73
32733;BME280;11867;51.198;11.966;2023-03-18T04:22:16;100005.34;;;11.02;64.58
32733;BME280;11867;51.198;11.966;2023-03-18T04:23:19;99999.69;;;11.17;64.08
32733;BME280;11867;51.198;11.966;2023-03-18T04:24:21;100003.41;;;11.02;64.36
32733;BME280;11867;51.198;11.966;2023-03-18T04:25:24;100004.94;;;10.89;64.57
32733;BME280;11867;51.198;11.966;2023-03-18T04:26:26;100002.44;;;10.93;64.92
32733;BME280;11867;51.198;11.966;2023-03-18T04:27:29;100002.22;;;10.89;64.99
32733;BME280;11867;51.198;11.966;2023-03-18T04:28:31;100005.19;;;10.69;65.60
32733;BME280;11867;51.198;11.966;2023-03-18T04:29:34;100000.47;;;10.50;66.29
32733;BME280;11867;51.198;11.966;2023-03-18T04:30:36;99999.53;;;10.31;66.81
32733;BME280;11867;51.198;11.966;2023-03-18T04:31:40;100004.75;;;10.27;67.48
32733;BME280;11867;51.198;11.966;2023-03-18T04:32:42;100000.03;;;10.38;67.28
32733;BME280;11867;51.198;11.966;2023-03-18T04:33:44;99993.19;;;10.06;68.18
32733;BME280;11867;51.198;11.966;2023-03-18T04:34:46;99998.38;;;10.08;68.13
32733;BME280;11867;51.198;11.966;2023-03-18T04:35:49;99992.31;;;10.16;68.04
32733;BME280;11867;51.198;11.966;2023-03-18T04:36:53;99996.78;;;10.02;68.92
32733;BME280;11867;51.198;11.966;2023-03-18T04:37:55;99995.53;;;10.23;68.15
32733;BME280;11867;51.198;11.966;2023-03-18T04:38:57;100001.38;;;10.41;67.83
32733;BME280;11867;51.198;11.966;2023-03-18T04:40:00;100000.38;;;10.32;67.69
32733;BME280;11867;51.198;11.966;2023-03-18T04:41:01;99996.44;;;10.43;67.67
32733;BME280;11867;51.198;11.966;2023-03-18T04:42:04;100005.66;;;10.47;67.47
32733;BME280;11867;51.198;11.966;2023-03-18T04:43:06;99993.63;;;10.53;67.45
32733;BME280;11867;51.198;11.966;2023-03-18T04:44:10;99994.59;;;10.62;67.21
32733;BME280;11867;51.198;11.966;2023-03-18T04:45:12;99997.44;;;10.76;66.62
32733;BME280;11867;51.198;11.966;2023-03-18T04:46:15;100000.63;;;10.59;67.02
32733;BME280;11867;51.198;11.966;2023-03-18T04:47:18;100002.31;;;10.55;67.26
32733;BME280;11867;51.198;11.966;2023-03-18T04:48:21;100003.09;;;10.61;67.09
32733;BME280;11867;51.198;11.966;2023-03-18T04:49:22;100002.09;;;10.76;66.88
32733;BME280;11867;51.198;11.966;2023-03-18T04:50:25;100002.94;;;10.95;66.11
32733;BME280;11867;51.198;11.966;2023-03-18T04:51:28;100002.16;;;11.14;65.67
32733;BME280;11867;51.198;11.966;2023-03-18T04:52:30;100011.38;;;10.99;66.13
32733;BME280;11867;51.198;11.966;2023-03-18T04:53:32;100013.69;;;11.10;65.54
32733;BME280;11867;51.198;11.966;2023-03-18T04:54:34;100012.91;;;11.29;65.35
32733;BME280;11867;51.198;11.966;2023-03-18T04:55:38;100014.13;;;11.18;65.51
32733;BME280;11867;51.198;11.966;2023-03-18T04:56:41;100007.38;;;11.34;65.20
32733;BME280;11867;51.198;11.966;2023-03-18T04:57:43;100013.16;;;11.51;64.72
32733;BME280;11867;51.198;11.966;2023-03-18T04:58:46;100015.78;;;11.57;64.52
32733;BME280;11867;51.198;11.966;2023-03-18T04:59:48;100011.00;;;11.48;65.17
32733;BME280;11867;51.198;11.966;2023-03-18T05:00:50;100021.91;;;11.67;64.29
32733;BME280;11867;51.198;11.966;2023-03-18T05:01:52;100014.00;;;11.85;64.17
32733;BME280;11867;51.198;11.966;2023-03-18T05:02:56;100012.19;;;11.80;64.17
32733;BME280;11867;51.198;11.966;2023-03-18T05:03:58;100013.69;;;11.86;64.19
32733;BME280;11867;51.198;11.966;2023-03-18T05:05:01;100014.59;;;11.63;65.01
32733;BME280;11867;51.198;11.966;2023-03-18T05:06:03;100026.78;;;11.70;65.11
32733;BME280;11867;51.198;11.966;2023-03-18T05:07:06;100026.09;;;11.41;65.61
32733;BME280;11867;51.198;11.966;2023-03-18T05:08:08;100022.00;;;11.00;67.07
32733;BME280;11867;51.198;11.966;2023-03-18T05:09:11;100019.53;;;11.23;66.44
32733;BME280;11867;51.198;11.966;2023-03-18T05:10:14;100028.88;;;11.60;65.50
32733;BME280;11867;51.198;11.966;2023-03-18T05:11:16;100019.84;;;11.78;64.85
32733;BME280;11867;51.198;11.966;2023-03-18T05:12:19;100020.38;;;11.99;63.85
32733;BME280;11867;51.198;11.966;2023-03-18T05:13:21;100017.25;;;12.06;64.10
32733;BME280;11867;51.198;11.966;2023-03-18T05:14:24;100021.31;;;12.08;64.47
32733;BME280;11867;51.198;11.966;2023-03-18T05:15:27;100020.50;;;12.08;64.52
32733;BME280;11867;51.198;11.966;2023-03-18T05:16:29;100020.34;;;11.61;65.85
32733;BME280;11867;51.198;11.966;2023-03-18T05:17:31;100017.41;;;11.39;66.68
32733;BME280;11867;51.198;11.966;2023-03-18T05:18:34;100018.94;;;11.26;66.85
32733;BME280;11867;51.198;11.966;2023-03-18T05:19:37;100022.94;;;11.52;66.68
32733;BME280;11867;51.198;11.966;2023-03-18T05:20:39;100016.25;;;11.64;66.17
32733;BME280;11867;51.198;11.966;2023-03-18T05:21:42;100014.69;;;11.77;65.83
32733;BME280;11867;51.198;11.966;2023-03-18T05:22:43;100019.69;;;11.88;65.83
32733;BME280;11867;51.198;11.966;2023-03-18T05:23:46;100008.41;;;11.95;65.43
32733;BME280;11867;51.198;11.966;2023-03-18T05:24:47;100007.75;;;12.03;65.36
32733;BME280;11867;51.198;11.966;2023-03-18T05:25:50;100005.81;;;11.28;67.43
32733;BME280;11867;51.198;11.966;2023-03-18T05:26:52;100008.78;;;11.31;67.39
32733;BME280;11867;51.198;11.966;2023-03-18T05:27:56;100004.63;;;11.15;68.47
32733;BME280;11867;51.198;11.966;2023-03-18T05:28:58;100008.69;;;11.37;67.92
32733;BME280;11867;51.198;11.966;2023-03-18T05:30:00;100004.34;;;11.36;67.77
32733;BME280;11867;51.198;11.966;2023-03-18T05:31:02;100010.19;;;11.48;67.62
32733;BME280;11867;51.198;11.966;2023-03-18T05:32:06;100005.84;;;11.66;67.12